sensor_id;sensor_type;location;lat;lon;timestamp;P1;durP1;ratioP1;P2;durP2;ratioP2
12072;SDS011;6098;49.004;8.372;2023-07-02T00:01:02;7.02;;;4.87;;
12072;SDS011;6098;49.004;8.372;2023-07-02T00:15:56;5.18;;;4.49;;
12072;SDS011;6098;49.004;8.372;2023-07-02T00:30:48;4.89;;;4.40;;
12072;SDS011;6098;49.004;8.372;2023-07-02T00:45:40;8.09;;;4.60;;
12072;SDS011;6098;49.004;8.372;2023-07-02T01:00:33;5.77;;;4.39;;
12072;SDS011;6098;49.004;8.372;2023-07-02T01:15:28;8.42;;;4.70;;
12072;SDS011;6098;49.004;8.372;2023-07-02T01:30:20;4.87;;;4.43;;
12072;SDS011;6098;49.004;8.372;2023-07-02T01:45:14;5.14;;;4.64;;
12072;SDS011;6098;49.004;8.372;2023-07-02T02:00:05;4.73;;;3.12;;
12072;SDS011;6098;49.004;8.372;2023-07-02T02:15:00;5.69;;;3.09;;
12072;SDS011;6098;49.004;8.372;2023-07-02T02:29:56;7.17;;;3.28;;
12072;SDS011;6098;49.004;8.372;2023-07-02T02:44:49;4.80;;;3.10;;
12072;SDS011;6098;49.004;8.372;2023-07-02T02:59:44;4.28;;;3.18;;
12072;SDS011;6098;49.004;8.372;2023-07-02T03:14:40;8.43;;;3.02;;
12072;SDS011;6098;49.004;8.372;2023-07-02T07:02:50;16.26;;;8.36;;
12072;SDS011;6098;49.004;8.372;2023-07-02T07:17:42;14.13;;;9.12;;
12072;SDS011;6098;49.004;8.372;2023-07-02T07:32:35;17.48;;;10.30;;
12072;SDS011;6098;49.004;8.372;2023-07-02T07:47:28;17.40;;;9.68;;
12072;SDS011;6098;49.004;8.372;2023-07-02T08:02:28;19.16;;;11.41;;
12072;SDS011;6098;49.004;8.372;2023-07-02T08:48:58;22.37;;;14.10;;
12072;SDS011;6098;49.004;8.372;2023-07-02T09:04:14;22.20;;;14.25;;
12072;SDS011;6098;49.004;8.372;2023-07-02T09:19:26;22.35;;;14.11;;
12072;SDS011;6098;49.004;8.372;2023-07-02T09:50:06;24.44;;;14.94;;
12072;SDS011;6098;49.004;8.372;2023-07-02T10:04:59;28.10;;;14.94;;
12072;SDS011;6098;49.004;8.372;2023-07-02T10:19:53;22.74;;;13.65;;
12072;SDS011;6098;49.004;8.372;2023-07-02T10:35:02;22.46;;;13.81;;
12072;SDS011;6098;49.004;8.372;2023-07-02T10:49:51;23.40;;;13.35;;
12072;SDS011;6098;49.004;8.372;2023-07-02T11:04:44;22.05;;;12.98;;
12072;SDS011;6098;49.004;8.372;2023-07-02T11:19:37;24.20;;;14.09;;
12072;SDS011;6098;49.004;8.372;2023-07-02T11:49:37;21.50;;;13.10;;
12072;SDS011;6098;49.004;8.372;2023-07-02T12:04:30;19.89;;;12.18;;
12072;SDS011;6098;49.004;8.372;2023-07-02T12:19:22;22.48;;;13.44;;
12072;SDS011;6098;49.004;8.372;2023-07-02T12:34:19;17.86;;;11.74;;
12072;SDS011;6098;49.004;8.372;2023-07-02T12:49:14;20.72;;;13.00;;
12072;SDS011;6098;49.004;8.372;2023-07-02T13:04:07;18.87;;;12.26;;
12072;SDS011;6098;49.004;8.372;2023-07-02T13:19:01;21.10;;;12.82;;
12072;SDS011;6098;49.004;8.372;2023-07-02T13:33:54;17.62;;;12.21;;
12072;SDS011;6098;49.004;8.372;2023-07-02T13:48:47;24.99;;;12.76;;
12072;SDS011;6098;49.004;8.372;2023-07-02T14:03:40;15.86;;;11.20;;
12072;SDS011;6098;49.004;8.372;2023-07-02T14:18:33;17.97;;;11.49;;
12072;SDS011;6098;49.004;8.372;2023-07-02T14:33:28;18.07;;;11.68;;
12072;SDS011;6098;49.004;8.372;2023-07-02T16:21:28;17.12;;;11.04;;
12072;SDS011;6098;49.004;8.372;2023-07-02T16:54:01;18.41;;;10.51;;
12072;SDS011;6098;49.004;8.372;2023-07-02T19:22:42;16.87;;;10.21;;
12072;SDS011;6098;49.004;8.372;2023-07-02T19:39:05;18.86;;;10.35;;
12072;SDS011;6098;49.004;8.372;2023-07-02T20:12:01;16.50;;;9.66;;
12072;SDS011;6098;49.004;8.372;2023-07-02T20:28:09;16.48;;;9.94;;
12072;SDS011;6098;49.004;8.372;2023-07-02T20:44:20;16.40;;;10.27;;
12072;SDS011;6098;49.004;8.372;2023-07-02T21:00:59;17.70;;;10.09;;
12072;SDS011;6098;49.004;8.372;2023-07-02T21:15:39;16.19;;;9.74;;
12072;SDS011;6098;49.004;8.372;2023-07-02T21:30:32;17.40;;;9.71;;
12072;SDS011;6098;49.004;8.372;2023-07-02T21:45:25;14.52;;;9.14;;
12072;SDS011;6098;49.004;8.372;2023-07-02T22:00:16;18.61;;;9.31;;
12072;SDS011;6098;49.004;8.372;2023-07-02T22:15:10;16.02;;;8.46;;
12072;SDS011;6098;49.004;8.372;2023-07-02T22:30:02;17.11;;;8.77;;
12072;SDS011;6098;49.004;8.372;2023-07-02T22:44:56;16.23;;;9.13;;
12072;SDS011;6098;49.004;8.372;2023-07-02T22:59:50;15.73;;;8.45;;
12072;SDS011;6098;49.004;8.372;2023-07-02T23:14:40;16.10;;;8.77;;
12072;SDS011;6098;49.004;8.372;2023-07-02T23:29:49;17.39;;;8.41;;
12072;SDS011;6098;49.004;8.372;2023-07-02T23:44:38;17.41;;;9.48;;
12072;SDS011;6098;49.004;8.372;2023-07-02T23:59:32;20.83;;;9.46;;
